Time;durP1;ratioP1;P1;durP2;ratioP2;P2;SDS_P1;SDS_P2;PMS_P1;PMS_P2;Temp;Humidity;BMP_temperature;BMP_pressure;BME280_temperature;BME280_humidity;BME280_pressure;Samples;Min_cycle;Max_cycle;Signal;HPM_P1;HPM_P2
2022/12/03 00:01:49;;;;;;;52.28;19.70;;;;;;;1.28;100.00;102336.63;4887953;29;20167;-73
2022/12/03 00:04:14;;;;;;;43.03;16.42;;;;;;;1.28;100.00;102334.88;4887859;29;20560;-75
2022/12/03 00:06:40;;;;;;;52.35;18.98;;;;;;;1.28;100.00;102331.38;4885895;29;20049;-75
2022/12/03 00:09:05;;;;;;;49.30;18.15;;;;;;;1.29;100.00;102325.22;4886580;29;20049;-75
2022/12/03 00:11:31;;;;;;;40.67;16.27;;;;;;;1.30;100.00;102324.34;4887520;29;20068;-76
2022/12/03 00:13:56;;;;;;;40.92;16.42;;;;;;;1.29;100.00;102323.47;4887853;29;20028;-75
2022/12/03 00:16:22;;;;;;;46.30;17.55;;;;;;;1.32;100.00;102322.59;4887465;29;20060;-75
2022/12/03 00:18:47;;;;;;;43.58;17.02;;;;;;;1.32;100.00;102321.72;4885493;29;20861;-75
2022/12/03 00:21:13;;;;;;;44.80;16.35;;;;;;;1.34;100.00;102322.59;4881849;29;20031;-72
2022/12/03 00:23:38;;;;;;;53.17;18.20;;;;;;;1.33;100.00;102323.47;4885520;29;20055;-74
2022/12/03 00:26:04;;;;;;;41.60;17.13;;;;;;;1.29;100.00;102318.22;4887021;29;20041;-74
2022/12/03 00:28:30;;;;;;;47.45;17.42;;;;;;;1.34;100.00;102320.84;4886001;29;20072;-75
2022/12/03 00:30:55;;;;;;;43.75;15.85;;;;;;;1.33;100.00;102318.22;4884990;29;20044;-73
2022/12/03 00:33:20;;;;;;;44.70;16.98;;;;;;;1.31;100.00;102310.34;4887776;29;20152;-75
2022/12/03 00:35:46;;;;;;;46.97;18.02;;;;;;;1.32;100.00;102309.47;4886840;29;20044;-73
2022/12/03 00:38:11;;;;;;;54.70;19.30;;;;;;;1.29;100.00;102312.97;4887298;29;20033;-74
2022/12/03 00:40:37;;;;;;;51.95;18.10;;;;;;;1.29;100.00;102306.84;4887849;29;20043;-74
2022/12/03 00:43:02;;;;;;;53.97;18.70;;;;;;;1.33;100.00;102307.72;4886537;29;20068;-76
2022/12/03 00:45:28;;;;;;;45.97;18.88;;;;;;;1.33;100.00;102303.31;4889307;29;20127;-76
2022/12/03 00:47:53;;;;;;;49.17;19.40;;;;;;;1.34;100.00;102306.81;4886665;29;20040;-75
2022/12/03 00:50:19;;;;;;;51.55;18.83;;;;;;;1.34;100.00;102298.94;4887711;29;20541;-74
2022/12/03 00:52:44;;;;;;;43.88;17.75;;;;;;;1.34;100.00;102301.56;4887823;29;20418;-75
2022/12/03 00:55:10;;;;;;;49.47;18.95;;;;;;;1.34;100.00;102310.31;4887982;29;20036;-76
2022/12/03 00:57:35;;;;;;;51.35;18.95;;;;;;;1.37;100.00;102306.84;4877789;29;20128;-76
2022/12/03 01:00:01;;;;;;;47.20;18.52;;;;;;;1.35;100.00;102308.56;4884902;29;20048;-74
2022/12/03 01:02:26;;;;;;;58.17;21.00;;;;;;;1.34;100.00;102310.31;4887584;29;20175;-76
2022/12/03 01:04:52;;;;;;;50.22;19.63;;;;;;;1.33;100.00;102310.34;4886080;29;20049;-74
2022/12/03 01:07:17;;;;;;;56.97;18.30;;;;;;;1.34;100.00;102312.09;4887695;29;20499;-75
2022/12/03 01:09:43;;;;;;;48.72;18.88;;;;;;;1.35;100.00;102308.56;4885967;29;20087;-76
2022/12/03 01:12:08;;;;;;;48.97;19.73;;;;;;;1.37;100.00;102315.59;4883286;29;20037;-76
2022/12/03 01:14:34;;;;;;;51.13;18.40;;;;;;;1.37;100.00;102309.47;4878536;29;20048;-73
2022/12/03 01:16:59;;;;;;;43.67;16.70;;;;;;;1.38;100.00;102301.56;4873264;29;20049;-73
2022/12/03 01:19:24;;;;;;;50.70;17.85;;;;;;;1.40;100.00;102307.69;4885194;29;20100;-72
2022/12/03 01:21:50;;;;;;;45.60;18.00;;;;;;;1.38;100.00;102308.56;4886635;29;20040;-74
2022/12/03 01:24:17;;;;;;;47.67;20.33;;;;;;;1.38;100.00;102303.31;4886961;29;20044;-75
2022/12/03 01:26:42;;;;;;;51.35;19.83;;;;;;;1.43;100.00;102297.19;4885352;29;20577;-72
2022/12/03 01:29:08;;;;;;;44.50;18.42;;;;;;;1.39;100.00;102303.31;4886865;29;20123;-74
2022/12/03 01:34:18;;;;;;;52.88;20.73;;;;;;;1.41;100.00;102298.06;4886524;29;20474;-73
2022/12/03 01:36:43;;;;;;;47.67;18.50;;;;;;;1.41;100.00;102296.31;4887407;29;20063;-74
2022/12/03 01:39:09;;;;;;;51.42;19.27;;;;;;;1.40;100.00;102305.06;4886865;29;20044;-74
2022/12/03 01:41:36;;;;;;;52.30;20.15;;;;;;;1.43;100.00;102302.44;4885905;29;20570;-72
2022/12/03 01:44:04;;;;;;;49.10;18.17;;;;;;;1.41;100.00;102298.94;4887435;29;20702;-77
2022/12/03 01:46:37;;;;;;;55.05;20.40;;;;;;;1.42;100.00;102299.81;4888607;29;20041;-74
2022/12/03 01:49:02;;;;;;;57.45;20.85;;;;;;;1.41;100.00;102292.81;4888992;29;20125;-74
2022/12/03 01:51:29;;;;;;;46.47;19.00;;;;;;;1.42;100.00;102291.94;4890613;29;20037;-72
2022/12/03 01:54:03;;;;;;;48.53;18.63;;;;;;;1.44;100.00;102292.78;4891321;29;20045;-76
2022/12/03 01:56:28;;;;;;;49.88;19.27;;;;;;;1.42;100.00;102291.94;4879153;29;20039;-74
2022/12/03 01:58:54;;;;;;;49.78;19.70;;;;;;;1.41;100.00;102291.06;4891746;29;20052;-75
2022/12/03 02:01:19;;;;;;;56.55;19.70;;;;;;;1.41;100.00;102290.19;4892053;29;20040;-75
2022/12/03 02:03:45;;;;;;;50.05;18.40;;;;;;;1.45;100.00;102286.66;4882370;29;20053;-75
2022/12/03 02:06:20;;;;;;;49.58;19.40;;;;;;;1.44;100.00;102284.91;4887344;29;20048;-75
2022/12/03 02:08:46;;;;;;;46.63;18.63;;;;;;;1.43;100.00;102293.69;4892145;29;20388;-74
2022/12/03 02:11:24;;;;;;;52.30;18.33;;;;;;;1.41;100.00;102298.94;4892167;29;20059;-76
2022/12/03 02:13:54;;;;;;;52.65;20.73;;;;;;;1.43;100.00;102284.03;4891506;29;20083;-75
2022/12/03 02:16:20;;;;;;;45.75;18.88;;;;;;;1.46;100.00;102284.03;4891832;29;20131;-74
2022/12/03 02:18:46;;;;;;;49.17;19.70;;;;;;;1.43;100.00;102291.06;4891977;29;20040;-75
2022/12/03 02:21:17;;;;;;;47.55;19.40;;;;;;;1.43;100.00;102289.28;4892375;29;20124;-76
2022/12/03 02:23:45;;;;;;;47.75;19.50;;;;;;;1.45;100.00;102294.53;4892535;29;20041;-76
2022/12/03 02:26:11;;;;;;;49.22;19.25;;;;;;;1.47;100.00;102287.53;4892868;29;20861;-75
2022/12/03 02:28:37;;;;;;;53.47;19.63;;;;;;;1.45;100.00;102286.66;4893520;29;20044;-75
2022/12/03 02:31:04;;;;;;;50.80;20.17;;;;;;;1.47;100.00;102282.28;4892958;29;20398;-74
2022/12/03 02:33:30;;;;;;;51.35;21.77;;;;;;;1.46;100.00;102285.78;4892349;29;20041;-76
2022/12/03 02:35:56;;;;;;;50.95;19.67;;;;;;;1.51;100.00;102279.66;4892320;29;20059;-74
2022/12/03 02:38:25;;;;;;;45.70;19.48;;;;;;;1.43;100.00;102275.28;4891756;29;20044;-76
2022/12/03 02:40:55;;;;;;;47.88;19.52;;;;;;;1.45;100.00;102278.75;4889507;29;20048;-76
2022/12/03 02:43:21;;;;;;;48.83;19.30;;;;;;;1.45;100.00;102278.75;4889592;29;20601;-76
2022/12/03 02:45:53;;;;;;;46.60;17.95;;;;;;;1.43;100.00;102280.53;4890587;29;20604;-75
2022/12/03 02:48:35;;;;;;;41.85;17.88;;;;;;;1.42;100.00;102276.16;4879634;29;20045;-74
2022/12/03 02:51:04;;;;;;;36.17;15.30;;;;;;;1.42;100.00;102278.78;4890477;29;20041;-75
2022/12/03 02:53:36;;;;;;;41.78;16.17;;;;;;;1.42;100.00;102276.16;4890034;29;20048;-76
2022/12/03 02:56:04;;;;;;;49.45;18.67;;;;;;;1.42;100.00;102276.16;4890051;29;20068;-74
2022/12/03 02:58:31;;;;;;;51.35;20.88;;;;;;;1.40;100.00;102272.66;4885385;29;20045;-75
2022/12/03 03:00:57;;;;;;;44.72;18.75;;;;;;;1.42;100.00;102281.41;4890184;29;20784;-77
2022/12/03 03:03:26;;;;;;;50.75;18.23;;;;;;;1.37;100.00;102273.53;4890386;29;20170;-76
2022/12/03 03:05:53;;;;;;;47.67;18.08;;;;;;;1.39;100.00;102282.28;4890361;29;20550;-76
2022/12/03 03:08:18;;;;;;;42.60;17.40;;;;;;;1.34;100.00;102268.28;4888743;29;20156;-75
2022/12/03 03:10:46;;;;;;;52.03;20.05;;;;;;;1.35;100.00;102277.03;4890300;29;20044;-75
2022/12/03 03:13:14;;;;;;;46.15;19.15;;;;;;;1.33;100.00;102277.06;4889817;29;20060;-78
2022/12/03 03:15:41;;;;;;;44.30;16.98;;;;;;;1.29;100.00;102293.69;4882575;29;20052;-75
2022/12/03 03:18:08;;;;;;;43.33;18.20;;;;;;;1.28;100.00;102273.56;4889710;29;20045;-75
2022/12/03 03:20:35;;;;;;;45.05;17.88;;;;;;;1.26;100.00;102273.56;4889563;29;20093;-75
2022/12/03 03:23:09;;;;;;;37.58;16.35;;;;;;;1.24;100.00;102270.06;4889897;29;20636;-76
2022/12/03 03:25:36;;;;;;;39.05;16.80;;;;;;;1.24;100.00;102262.16;4888131;29;20045;-76
2022/12/03 03:28:02;;;;;;;42.45;17.58;;;;;;;1.23;100.00;102268.31;4887884;29;20055;-76
2022/12/03 03:30:27;;;;;;;43.58;16.40;;;;;;;1.20;100.00;102265.69;4889190;29;20458;-76
2022/12/03 03:32:53;;;;;;;51.00;18.55;;;;;;;1.21;100.00;102258.69;4889304;29;20044;-75
2022/12/03 03:35:18;;;;;;;49.28;17.73;;;;;;;1.22;100.00;102260.44;4889948;29;20042;-76
2022/12/03 03:37:44;;;;;;;51.63;19.60;;;;;;;1.17;100.00;102262.19;4889970;29;20048;-76
2022/12/03 03:40:10;;;;;;;44.85;19.08;;;;;;;1.19;100.00;102265.69;4889450;29;20120;-74
2022/12/03 03:42:37;;;;;;;51.47;18.65;;;;;;;1.13;100.00;102258.69;4889315;29;20047;-77
2022/12/03 03:45:05;;;;;;;48.78;19.35;;;;;;;1.12;100.00;102259.56;4888942;29;20037;-76
2022/12/03 03:47:30;;;;;;;49.72;18.50;;;;;;;1.12;100.00;102250.81;4889838;29;20036;-75
2022/12/03 03:49:56;;;;;;;48.40;17.73;;;;;;;1.10;100.00;102255.19;4887355;29;20844;-75
2022/12/03 03:52:22;;;;;;;44.20;18.98;;;;;;;1.09;100.00;102246.44;4888655;29;20075;-74
2022/12/03 03:54:47;;;;;;;46.85;16.52;;;;;;;1.06;100.00;102249.09;4888802;29;20053;-76
2022/12/03 03:57:13;;;;;;;47.85;17.35;;;;;;;1.06;100.00;102246.47;4888704;29;20136;-76
2022/12/03 03:59:38;;;;;;;52.35;20.20;;;;;;;1.04;100.00;102238.56;4889209;29;20128;-74
2022/12/03 04:02:04;;;;;;;49.95;18.50;;;;;;;1.02;100.00;102248.22;4888652;29;20053;-76
2022/12/03 04:04:35;;;;;;;48.90;20.63;;;;;;;1.05;100.00;102244.69;4888368;29;20067;-75
2022/12/03 04:07:00;;;;;;;48.55;20.60;;;;;;;1.06;100.00;102249.09;4888350;29;20583;-76
2022/12/03 04:09:26;;;;;;;52.05;19.27;;;;;;;1.05;100.00;102252.56;4888391;29;20064;-76
2022/12/03 04:14:35;;;;;;;49.20;20.42;;;;;;;1.10;100.00;102250.81;4888209;29;20569;-75
2022/12/03 04:17:00;;;;;;;47.53;20.35;;;;;;;1.03;100.00;102249.06;4887946;29;20047;-74
2022/12/03 04:19:26;;;;;;;52.13;18.83;;;;;;;1.03;100.00;102246.44;4881517;29;20037;-76
2022/12/03 04:28:47;;;;;;;45.55;17.77;;;;;;;1.01;100.00;102256.09;4887690;29;20083;-76
2022/12/03 04:30:20;;;;;;;54.55;20.77;;;;;;;1.01;100.00;102249.09;4888035;29;20048;-75
2022/12/03 04:35:47;;;;;;;53.88;19.70;;;;;;;0.99;100.00;102247.31;4888046;29;20063;-75
2022/12/03 04:38:15;;;;;;;56.80;21.77;;;;;;;0.97;100.00;102249.09;4874918;29;20702;-74
2022/12/03 04:41:02;;;;;;;57.33;22.48;;;;;;;0.98;100.00;102243.81;4886401;29;20826;-75
2022/12/03 04:43:31;;;;;;;56.67;21.30;;;;;;;0.97;100.00;102249.09;4887686;29;20056;-77
2022/12/03 04:45:57;;;;;;;67.90;24.48;;;;;;;0.94;100.00;102239.44;4888033;29;20044;-76
2022/12/03 04:48:23;;;;;;;54.08;22.10;;;;;;;0.94;100.00;102241.19;4876835;29;20081;-75
2022/12/03 04:50:48;;;;;;;58.65;21.10;;;;;;;0.93;100.00;102240.34;4886697;29;20052;-76
2022/12/03 04:53:14;;;;;;;53.83;20.90;;;;;;;0.96;100.00;102239.47;4888308;29;20084;-74
2022/12/03 04:55:39;;;;;;;56.35;21.40;;;;;;;0.94;100.00;102242.06;4888473;29;20060;-76
2022/12/03 04:58:05;;;;;;;47.38;20.23;;;;;;;0.95;100.00;102241.19;4889388;29;20139;-75
2022/12/03 05:00:30;;;;;;;56.63;20.80;;;;;;;0.99;100.00;102239.44;4887395;29;20045;-73
2022/12/03 05:02:56;;;;;;;57.60;21.55;;;;;;;0.96;100.00;102240.34;4889370;29;20036;-75
2022/12/03 05:05:21;;;;;;;65.80;23.75;;;;;;;0.97;100.00;102241.22;4888913;29;20048;-76
2022/12/03 05:07:47;;;;;;;59.67;21.50;;;;;;;0.98;100.00;102251.72;4889007;29;20094;-76
2022/12/03 05:10:12;;;;;;;58.33;22.95;;;;;;;0.98;100.00;102242.97;4888681;29;20111;-76
2022/12/03 05:12:37;;;;;;;59.03;21.90;;;;;;;0.98;100.00;102246.47;4887135;29;20045;-77
2022/12/03 05:15:04;;;;;;;60.45;20.23;;;;;;;0.98;100.00;102243.81;4888044;29;20059;-76
2022/12/03 05:17:29;;;;;;;49.63;21.20;;;;;;;0.98;100.00;102245.59;4888941;29;20044;-76
2022/12/03 05:22:39;;;;;;;59.47;20.65;;;;;;;0.96;100.00;102234.22;4891246;29;20040;-75
2022/12/03 05:25:05;;;;;;;58.22;21.83;;;;;;;0.94;100.00;102238.59;4892095;29;20517;-76
2022/12/03 05:27:30;;;;;;;61.33;23.33;;;;;;;0.95;100.00;102237.69;4892301;29;20640;-76
2022/12/03 05:29:56;;;;;;;56.28;22.10;;;;;;;0.94;100.00;102222.81;4891748;29;20129;-76
2022/12/03 05:32:21;;;;;;;54.40;20.25;;;;;;;0.96;100.00;102226.34;4891138;29;20047;-76
2022/12/03 05:34:46;;;;;;;47.30;18.45;;;;;;;0.95;100.00;102235.94;4889769;29;20036;-76
2022/12/03 05:37:12;;;;;;;50.78;17.88;;;;;;;0.92;100.00;102228.09;4881379;29;20777;-76
2022/12/03 05:39:37;;;;;;;58.50;21.42;;;;;;;0.94;100.00;102230.69;4885095;29;20053;-76
2022/12/03 05:44:47;;;;;;;47.50;19.25;;;;;;;0.89;100.00;102224.59;4889169;29;20048;-76
2022/12/03 05:47:12;;;;;;;43.50;17.60;;;;;;;0.91;100.00;102225.47;4891516;29;20055;-76
2022/12/03 05:49:38;;;;;;;56.72;19.98;;;;;;;0.89;100.00;102221.94;4890999;29;20049;-75
2022/12/03 05:52:03;;;;;;;58.70;21.52;;;;;;;0.89;100.00;102221.94;4880578;29;20075;-74
2022/12/03 05:54:29;;;;;;;54.95;21.40;;;;;;;0.87;100.00;102221.97;4888473;29;20083;-75
2022/12/03 05:56:54;;;;;;;52.50;18.23;;;;;;;0.92;100.00;102220.22;4887068;29;20078;-77
2022/12/03 05:59:20;;;;;;;55.92;17.05;;;;;;;0.96;100.00;102215.84;4887298;29;20668;-75
2022/12/03 06:01:45;;;;;;;63.25;21.80;;;;;;;0.92;100.00;102214.97;4887041;29;20056;-76
2022/12/03 06:04:11;;;;;;;51.47;19.52;;;;;;;0.90;100.00;102221.94;4887848;29;20048;-74
2022/12/03 06:06:36;;;;;;;53.45;20.13;;;;;;;0.88;100.00;102221.09;4886609;29;20041;-76
2022/12/03 06:09:02;;;;;;;51.80;19.52;;;;;;;0.91;100.00;102213.22;4890663;29;20131;-75
2022/12/03 06:11:29;;;;;;;66.68;22.15;;;;;;;0.92;100.00;102216.72;4882398;29;20064;-75
2022/12/03 06:13:54;;;;;;;59.03;19.65;;;;;;;0.92;100.00;102224.59;4891189;29;20123;-76
2022/12/03 06:16:20;;;;;;;56.38;18.48;;;;;;;0.89;100.00;102221.94;4889784;29;20041;-75
2022/12/03 06:18:45;;;;;;;57.22;20.15;;;;;;;0.87;100.00;102202.72;4887727;29;20036;-76
2022/12/03 06:21:11;;;;;;;54.92;20.02;;;;;;;0.89;100.00;102204.44;4887511;29;20500;-76
2022/12/03 06:23:43;;;;;;;55.90;20.92;;;;;;;0.89;100.00;102203.56;4889501;29;20043;-75
2022/12/03 06:26:12;;;;;;;48.60;19.85;;;;;;;0.86;100.00;102193.09;4893173;29;20044;-74
2022/12/03 06:28:37;;;;;;;55.63;18.20;;;;;;;0.89;100.00;102198.31;4886433;29;20045;-75
2022/12/03 06:31:02;;;;;;;62.85;20.30;;;;;;;0.86;100.00;102207.09;4890142;29;20079;-75
2022/12/03 06:33:28;;;;;;;55.17;19.27;;;;;;;0.86;100.00;102204.47;4889600;29;20048;-76
2022/12/03 06:35:53;;;;;;;60.50;20.92;;;;;;;0.88;100.00;102200.06;4894042;29;20067;-75
2022/12/03 06:38:19;;;;;;;51.35;18.98;;;;;;;0.85;100.00;102205.31;4890997;29;20037;-74
2022/12/03 06:40:44;;;;;;;57.47;19.83;;;;;;;0.84;100.00;102200.09;4890052;29;20084;-75
2022/12/03 06:43:09;;;;;;;53.95;19.13;;;;;;;0.86;100.00;102196.59;4891863;29;20123;-74
2022/12/03 06:45:35;;;;;;;61.95;21.33;;;;;;;0.90;100.00;102203.56;4891299;29;20206;-75
2022/12/03 06:48:00;;;;;;;60.47;21.85;;;;;;;0.91;100.00;102194.84;4891269;29;20076;-77
2022/12/03 06:50:26;;;;;;;64.38;21.33;;;;;;;0.86;100.00;102198.34;4890610;29;20099;-76
2022/12/03 06:52:51;;;;;;;63.97;21.80;;;;;;;0.84;100.00;102187.81;4890075;29;20063;-75
2022/12/03 06:55:16;;;;;;;66.30;21.40;;;;;;;0.86;100.00;102196.59;4891363;29;20127;-75
2022/12/03 06:57:42;;;;;;;69.95;19.83;;;;;;;0.88;100.00;102194.81;4890919;29;20040;-76
2022/12/03 07:00:08;;;;;;;54.97;20.50;;;;;;;0.85;100.00;102178.19;4894482;29;20084;-76
2022/12/03 07:02:34;;;;;;;73.68;22.90;;;;;;;0.82;100.00;102186.97;4887607;29;20108;-75
2022/12/03 07:05:01;;;;;;;65.05;23.15;;;;;;;0.83;100.00;102187.84;4890360;29;20652;-74
2022/12/03 07:07:26;;;;;;;69.13;23.88;;;;;;;0.86;100.00;102186.09;4881012;29;20128;-73
2022/12/03 07:09:52;;;;;;;74.72;24.77;;;;;;;0.82;100.00;102191.34;4882070;29;20080;-76
2022/12/03 07:12:17;;;;;;;70.32;23.75;;;;;;;0.76;100.00;102200.97;4883682;29;20156;-77
2022/12/03 07:14:43;;;;;;;78.45;22.70;;;;;;;0.76;100.00;102197.47;4888552;29;20078;-75
2022/12/03 07:17:08;;;;;;;68.95;22.48;;;;;;;0.76;100.00;102197.47;4890918;29;20075;-73
2022/12/03 07:19:34;;;;;;;83.15;25.15;;;;;;;0.75;100.00;102199.25;4889653;29;20040;-75
2022/12/03 07:21:59;;;;;;;85.82;23.95;;;;;;;0.71;100.00;102202.72;4886734;29;20048;-74
2022/12/03 07:24:25;;;;;;;73.07;23.42;;;;;;;0.72;100.00;102199.22;4875674;29;20048;-74
2022/12/03 07:26:50;;;;;;;75.43;26.23;;;;;;;0.70;100.00;102207.97;4885920;29;20036;-76
2022/12/03 07:29:16;;;;;;;83.68;24.77;;;;;;;0.70;100.00;102207.97;4878459;29;20028;-76
2022/12/03 07:31:41;;;;;;;75.43;25.27;;;;;;;0.71;100.00;102218.47;4886499;29;20794;-76
2022/12/03 07:34:06;;;;;;;78.03;25.52;;;;;;;0.69;100.00;102217.59;4888177;29;20152;-74
2022/12/03 07:36:32;;;;;;;96.45;27.90;;;;;;;0.70;100.00;102216.75;4887402;29;21688;-75
2022/12/03 07:38:58;;;;;;;86.10;26.50;;;;;;;0.75;100.00;102219.34;4878067;29;20061;-73
2022/12/03 07:41:23;;;;;;;84.65;24.65;;;;;;;0.68;100.00;102218.47;4883414;29;20068;-74
2022/12/03 07:43:49;;;;;;;77.82;22.50;;;;;;;0.67;100.00;102215.84;4879641;29;20041;-73
2022/12/03 07:46:14;;;;;;;85.53;25.27;;;;;;;0.68;100.00;102220.22;4884548;29;20048;-74
2022/12/03 07:48:39;;;;;;;75.15;22.35;;;;;;;0.69;100.00;102214.97;4882103;29;20048;-74
2022/12/03 07:51:05;;;;;;;73.65;23.17;;;;;;;0.68;100.00;102226.34;4874941;29;20098;-73
2022/12/03 07:53:30;;;;;;;76.90;23.15;;;;;;;0.68;100.00;102217.59;4885140;29;20568;-74
2022/12/03 07:55:56;;;;;;;75.47;24.13;;;;;;;0.69;100.00;102220.22;4887424;29;20032;-75
2022/12/03 07:58:21;;;;;;;82.72;25.70;;;;;;;0.70;100.00;102221.09;4881436;29;20651;-75
2022/12/03 08:00:47;;;;;;;73.40;23.00;;;;;;;0.72;100.00;102212.34;4883811;29;20054;-74
2022/12/03 08:03:12;;;;;;;72.00;24.23;;;;;;;0.68;100.00;102220.22;4887083;29;20064;-74
2022/12/03 08:05:37;;;;;;;90.47;25.67;;;;;;;0.68;100.00;102222.84;4885843;29;20036;-75
2022/12/03 08:08:03;;;;;;;81.00;22.52;;;;;;;0.64;100.00;102224.59;4885082;29;20041;-73
2022/12/03 08:10:28;;;;;;;85.38;24.85;;;;;;;0.63;100.00;102221.97;4877237;29;20049;-75
2022/12/03 08:12:57;;;;;;;64.50;20.88;;;;;;;0.61;100.00;102216.75;4882164;29;20037;-73
2022/12/03 08:15:25;;;;;;;78.78;23.42;;;;;;;0.63;100.00;102222.84;4883024;29;20136;-74
2022/12/03 08:17:55;;;;;;;67.72;23.00;;;;;;;0.61;100.00;102229.88;4866109;29;20051;-75
2022/12/03 08:20:23;;;;;;;66.50;19.73;;;;;;;0.60;100.00;102222.84;4873059;29;20053;-75
2022/12/03 08:22:51;;;;;;;65.63;19.58;;;;;;;0.55;100.00;102221.97;4885584;29;20052;-73
2022/12/03 08:25:29;;;;;;;51.28;18.80;;;;;;;0.55;100.00;102224.59;4887120;29;20032;-75
2022/12/03 08:28:25;;;;;;;60.47;18.70;;;;;;;0.56;100.00;102218.50;4882737;29;20064;-72
2022/12/03 08:31:19;;;;;;;77.00;21.58;;;;;;;0.59;100.00;102218.47;4883169;29;20124;-74
2022/12/03 08:33:46;;;;;;;59.45;17.85;;;;;;;0.59;100.00;102222.84;4859481;29;20056;-74
2022/12/03 08:36:17;;;;;;;66.88;20.75;;;;;;;0.62;100.00;102221.09;4881025;29;20442;-74
2022/12/03 08:39:22;;;;;;;63.80;21.00;;;;;;;0.63;100.00;102221.97;4880180;29;20048;-75
2022/12/03 08:44:40;;;;;;;69.35;20.65;;;;;;;0.66;100.00;102219.38;4879200;29;20056;-75
2022/12/03 08:47:08;;;;;;;61.88;21.08;;;;;;;0.66;100.00;102216.75;4880019;29;20052;-73
2022/12/03 08:49:33;;;;;;;67.65;21.13;;;;;;;0.68;100.00;102210.59;4884432;29;20132;-74
2022/12/03 08:52:02;;;;;;;73.78;21.45;;;;;;;0.63;100.00;102212.34;4883184;29;20052;-73
2022/12/03 08:54:27;;;;;;;64.40;21.85;;;;;;;0.65;100.00;102212.34;4884582;29;20777;-75
2022/12/03 08:56:53;;;;;;;71.32;21.30;;;;;;;0.65;100.00;102209.72;4886057;29;20060;-75
2022/12/03 08:59:29;;;;;;;58.65;20.02;;;;;;;0.63;100.00;102214.97;4888254;29;20043;-75
2022/12/03 09:01:55;;;;;;;65.97;20.77;;;;;;;0.64;100.00;102207.97;4887992;29;20093;-73
2022/12/03 09:05:22;;;;;;;57.53;20.52;;;;;;;0.62;100.00;102207.97;4888169;29;20048;-74
2022/12/03 09:07:48;;;;;;;63.90;20.65;;;;;;;0.60;100.00;102196.59;4855933;29;20075;-74
2022/12/03 09:10:14;;;;;;;67.45;20.58;;;;;;;0.59;100.00;102205.34;4866911;29;20510;-74
2022/12/03 09:12:39;;;;;;;69.38;21.13;;;;;;;0.58;100.00;102200.09;4861155;29;20061;-75
2022/12/03 09:15:05;;;;;;;84.10;24.10;;;;;;;0.61;100.00;102201.00;4862899;29;20053;-75
2022/12/03 09:17:31;;;;;;;64.97;22.50;;;;;;;0.61;100.00;102203.63;4866127;29;20052;-73
2022/12/03 09:19:57;;;;;;;73.28;24.48;;;;;;;0.56;100.00;102209.75;4850610;29;20049;-75
2022/12/03 09:22:22;;;;;;;72.60;21.40;;;;;;;0.56;100.00;102204.50;4865736;29;20049;-74
2022/12/03 09:24:48;;;;;;;78.20;21.10;;;;;;;0.54;100.00;102200.97;4865875;29;20124;-73
2022/12/03 09:27:13;;;;;;;70.45;23.30;;;;;;;0.54;100.00;102203.59;4866264;29;20059;-74
2022/12/03 09:29:39;;;;;;;75.60;23.05;;;;;;;0.54;100.00;102203.59;4865535;29;20037;-75
2022/12/03 09:32:04;;;;;;;75.57;23.33;;;;;;;0.57;100.00;102206.25;4854879;29;20111;-74
2022/12/03 09:34:29;;;;;;;76.28;23.02;;;;;;;0.56;100.00;102207.13;4832248;29;20125;-74
2022/12/03 09:36:55;;;;;;;79.78;23.77;;;;;;;0.55;100.00;102210.59;4859176;29;20217;-73
2022/12/03 09:39:20;;;;;;;74.43;23.75;;;;;;;0.55;100.00;102213.22;4872739;29;20056;-75
2022/12/03 09:41:46;;;;;;;73.45;21.25;;;;;;;0.58;100.00;102206.22;4878860;29;20064;-72
2022/12/03 09:44:12;;;;;;;77.95;22.30;;;;;;;0.48;100.00;102217.59;4886308;29;20045;-72
2022/12/03 09:46:38;;;;;;;70.88;20.30;;;;;;;0.49;100.00;102214.97;4886570;29;20041;-76
2022/12/03 09:49:06;;;;;;;75.75;23.45;;;;;;;0.46;100.00;102212.38;4887366;29;20745;-72
2022/12/03 09:51:34;;;;;;;59.30;20.13;;;;;;;0.46;100.00;102208.88;4884741;29;20044;-71
2022/12/03 09:54:01;;;;;;;59.88;18.17;;;;;;;0.44;100.00;102200.09;4884469;29;20055;-74
2022/12/03 09:56:27;;;;;;;67.25;19.88;;;;;;;0.42;100.00;102199.25;4884463;29;20056;-72
2022/12/03 09:58:53;;;;;;;65.93;21.42;;;;;;;0.43;100.00;102193.97;4886353;29;20264;-71
2022/12/03 10:01:19;;;;;;;73.75;21.38;;;;;;;0.47;100.00;102192.25;4887198;29;20090;-73
2022/12/03 10:03:48;;;;;;;62.92;20.85;;;;;;;0.36;100.00;102194.00;4886433;29;20490;-73
2022/12/03 10:06:17;;;;;;;75.28;21.05;;;;;;;0.40;100.00;102186.13;4886360;29;20179;-71
2022/12/03 10:08:47;;;;;;;76.20;23.05;;;;;;;0.38;100.00;102195.72;4886346;29;20063;-73
2022/12/03 10:11:13;;;;;;;66.30;19.52;;;;;;;0.40;100.00;102185.22;4886586;29;20087;-73
2022/12/03 10:13:39;;;;;;;67.80;21.10;;;;;;;0.37;100.00;102195.75;4886499;29;20052;-72
2022/12/03 10:16:10;;;;;;;64.60;19.95;;;;;;;0.36;100.00;102186.13;4886594;29;20045;-73
2022/12/03 10:18:38;;;;;;;72.78;22.73;;;;;;;0.45;100.00;102187.00;4886437;29;20037;-73
2022/12/03 10:21:15;;;;;;;63.17;20.65;;;;;;;0.43;100.00;102188.72;4886671;29;20044;-72
2022/12/03 10:23:40;;;;;;;64.82;19.98;;;;;;;0.36;100.00;102188.75;4886514;29;20829;-74
2022/12/03 10:26:06;;;;;;;77.53;23.92;;;;;;;0.47;100.00;102187.00;4886497;29;20047;-73
2022/12/03 10:28:34;;;;;;;59.80;18.67;;;;;;;0.44;100.00;102176.47;4887205;29;20047;-72
2022/12/03 10:31:02;;;;;;;66.80;20.35;;;;;;;0.51;100.00;102183.50;4887852;29;20083;-73
2022/12/03 10:33:30;;;;;;;68.22;19.85;;;;;;;0.47;100.00;102169.50;4887892;29;20081;-72
2022/12/03 10:35:56;;;;;;;80.22;22.77;;;;;;;0.47;100.00;102171.25;4877275;29;20104;-76
2022/12/03 10:38:22;;;;;;;62.40;18.33;;;;;;;0.48;100.00;102165.13;4888308;29;20048;-75
2022/12/03 10:40:48;;;;;;;74.93;21.88;;;;;;;0.46;100.00;102162.50;4887539;29;20734;-74
2022/12/03 10:43:24;;;;;;;70.18;21.92;;;;;;;0.45;100.00;102167.72;4888616;29;20040;-74
2022/12/03 10:46:08;;;;;;;78.05;21.90;;;;;;;0.51;100.00;102163.38;4888032;29;20148;-75
2022/12/03 10:48:33;;;;;;;69.38;21.40;;;;;;;0.50;100.00;102159.00;4888519;29;20085;-74
2022/12/03 10:51:04;;;;;;;57.00;18.88;;;;;;;0.52;100.00;102152.00;4888914;29;20788;-75
2022/12/03 10:53:32;;;;;;;78.53;20.60;;;;;;;0.50;100.00;102148.50;4886861;29;20048;-76
2022/12/03 10:56:00;;;;;;;67.43;18.88;;;;;;;0.42;100.00;102146.75;4888087;29;20553;-74
2022/12/03 10:58:44;;;;;;;67.63;19.90;;;;;;;0.46;100.00;102149.38;4888310;29;20045;-75
2022/12/03 11:01:15;;;;;;;67.93;21.42;;;;;;;0.54;100.00;102140.63;4888193;29;20036;-75
2022/12/03 11:03:41;;;;;;;60.88;19.52;;;;;;;0.55;100.00;102132.72;4888224;29;20048;-75
2022/12/03 11:06:13;;;;;;;69.43;20.23;;;;;;;0.55;100.00;102131.88;4887545;29;20044;-74
2022/12/03 11:08:42;;;;;;;74.82;20.35;;;;;;;0.48;100.00;102131.88;4888011;29;20108;-73
2022/12/03 11:11:17;;;;;;;62.90;19.95;;;;;;;0.56;100.00;102126.63;4887471;29;20060;-74
2022/12/03 11:14:00;;;;;;;60.35;19.98;;;;;;;0.50;100.00;102124.91;4888583;29;20071;-74
2022/12/03 11:16:37;;;;;;;;;;;;;;;0.57;100.00;102124.88;4886419;29;20052;-73
2022/12/03 11:19:05;;;;;;;62.50;20.55;;;;;;;0.47;100.00;102117.03;4876931;29;19948;-74
2022/12/03 11:21:30;;;;;;;61.33;19.20;;;;;;;0.40;100.00;102119.63;4888096;29;20623;-73
2022/12/03 11:23:58;;;;;;;67.25;19.75;;;;;;;0.46;100.00;102114.41;4887142;29;20068;-75
2022/12/03 11:26:36;;;;;;;75.03;20.60;;;;;;;0.51;100.00;102110.03;4883527;29;20055;-73
2022/12/03 11:29:11;;;;;;;54.50;17.90;;;;;;;0.42;100.00;102099.53;4887191;29;20076;-74
2022/12/03 11:31:45;;;;;;;68.30;21.02;;;;;;;0.38;100.00;102098.66;4887793;29;20064;-75
2022/12/03 11:34:17;;;;;;;76.95;21.58;;;;;;;0.50;100.00;102090.78;4886322;29;20041;-74